Time;durP1;ratioP1;P1;durP2;ratioP2;P2;SDS_P1;SDS_P2;PMS_P1;PMS_P2;Temp;Humidity;BMP_temperature;BMP_pressure;BME280_temperature;BME280_humidity;BME280_pressure;Samples;Min_cycle;Max_cycle;Signal;HPM_P1;HPM_P2
2022/10/07 00:00:51;;;;;;;10.37;5.07;;;;;;;-141.28;100.00;50345.91;5092464;28;20288;-73
2022/10/07 00:03:19;;;;;;;7.83;4.07;;;;;;;-141.28;100.00;50357.69;5073997;28;20209;-74
2022/10/07 00:05:46;;;;;;;7.30;4.23;;;;;;;-141.28;100.00;50338.06;5091763;28;20227;-75
2022/10/07 00:08:15;;;;;;;6.43;4.57;;;;;;;-141.28;100.00;50377.31;5092190;28;20282;-75
2022/10/07 00:10:45;;;;;;;6.33;3.47;;;;;;;-141.28;100.00;50359.66;5091411;28;20208;-73
2022/10/07 00:13:12;;;;;;;7.87;3.90;;;;;;;-141.28;100.00;50369.47;5091877;28;20253;-74
2022/10/07 00:15:39;;;;;;;5.73;3.67;;;;;;;-141.28;100.00;50400.88;5091801;28;20199;-73
2022/10/07 00:18:07;;;;;;;7.53;3.93;;;;;;;-141.28;100.00;50385.16;5091813;28;20508;-73
2022/10/07 00:20:38;;;;;;;7.87;3.73;;;;;;;-141.28;100.00;50404.81;5070645;28;20698;-73
2022/10/07 00:23:05;;;;;;;14.73;3.93;;;;;;;-141.28;100.00;50387.13;5091089;28;20191;-73
2022/10/07 00:25:36;;;;;;;7.10;3.77;;;;;;;-141.28;100.00;50416.56;5092002;28;20191;-73
2022/10/07 00:28:03;;;;;;;7.97;4.30;;;;;;;-141.28;100.00;50436.19;5078273;28;20773;-73
2022/10/07 00:30:30;;;;;;;11.07;4.77;;;;;;;-141.28;100.00;50436.19;5091453;28;20282;-72
2022/10/07 00:32:57;;;;;;;11.37;4.50;;;;;;;-141.28;100.00;50455.84;5091456;28;20592;-74
2022/10/07 00:35:25;;;;;;;8.10;4.23;;;;;;;-141.28;100.00;50447.97;5090552;28;20203;-75
2022/10/07 00:37:53;;;;;;;10.90;5.63;;;;;;;-141.28;100.00;50453.88;5091483;28;20852;-73
2022/10/07 00:40:20;;;;;;;12.40;6.50;;;;;;;-141.28;100.00;50447.97;5091210;28;20199;-73
2022/10/07 00:42:49;;;;;;;10.33;5.20;;;;;;;-141.28;100.00;50463.69;5091357;28;20211;-73
2022/10/07 00:45:20;;;;;;;12.83;5.50;;;;;;;-141.28;100.00;50444.06;5091116;28;20196;-74
2022/10/07 00:47:50;;;;;;;8.73;5.30;;;;;;;-141.28;100.00;50438.16;5091227;28;20210;-73
2022/10/07 00:50:21;;;;;;;8.70;3.97;;;;;;;-141.28;100.00;50420.50;5091235;28;20290;-74
2022/10/07 00:52:51;;;;;;;9.97;4.20;;;;;;;-141.28;100.00;50410.69;5091031;28;20282;-73
2022/10/07 00:55:24;;;;;;;10.63;4.17;;;;;;;-141.28;100.00;50381.25;5090746;28;20192;-74
2022/10/07 00:57:56;;;;;;;9.30;3.50;;;;;;;-141.28;100.00;50369.47;5090756;28;20250;-73
2022/10/07 01:00:23;;;;;;;4.10;3.20;;;;;;;-141.28;100.00;50361.63;5089854;28;20254;-74
2022/10/07 01:02:51;;;;;;;8.67;3.00;;;;;;;-141.28;100.00;50330.22;5091304;28;20255;-75
2022/10/07 01:05:20;;;;;;;9.97;3.30;;;;;;;-141.28;100.00;50322.34;5090914;28;20187;-75
2022/10/07 01:07:49;;;;;;;6.20;3.43;;;;;;;-141.28;100.00;50279.19;5090096;28;20227;-72
2022/10/07 01:10:18;;;;;;;5.27;3.00;;;;;;;-141.28;100.00;50255.63;5078488;28;20196;-73
2022/10/07 01:13:04;;;;;;;7.27;3.10;;;;;;;-141.28;100.00;50271.31;5090875;28;20495;-74
2022/10/07 01:15:37;;;;;;;7.33;3.17;;;;;;;-141.28;100.00;50273.28;5079035;28;20204;-73
2022/10/07 01:18:14;;;;;;;6.07;2.97;;;;;;;-141.28;100.00;50271.31;5090485;28;20662;-75
2022/10/07 01:20:50;;;;;;;7.37;3.07;;;;;;;-141.28;100.00;50255.63;5069414;28;20297;-73
2022/10/07 01:23:48;;;;;;;7.67;3.10;;;;;;;-141.28;100.00;50290.97;5089684;28;20803;-75
2022/10/07 01:26:45;;;;;;;9.87;3.50;;;;;;;-141.28;100.00;50393.03;5090606;28;20287;-74
2022/10/07 01:29:14;;;;;;;12.70;3.27;;;;;;;-141.28;100.00;50310.59;5090185;28;21058;-75
2022/10/07 01:31:48;;;;;;;4.93;3.00;;;;;;;-141.28;100.00;50275.25;5091123;28;20192;-73
2022/10/07 01:34:18;;;;;;;5.07;2.60;;;;;;;-141.28;100.00;50239.94;5090790;28;20312;-74
2022/10/07 01:36:51;;;;;;;7.63;3.57;;;;;;;-141.28;100.00;50220.28;5090762;28;20204;-74
2022/10/07 01:39:23;;;;;;;9.73;3.10;;;;;;;-141.28;100.00;50208.53;5090610;28;20498;-74
2022/10/07 01:41:52;;;;;;;8.60;3.40;;;;;;;-141.28;100.00;50169.28;5090291;28;20529;-74
2022/10/07 01:44:20;;;;;;;4.30;2.50;;;;;;;-141.28;100.00;50130.00;5090436;28;20248;-73
2022/10/07 01:46:48;;;;;;;7.77;3.27;;;;;;;-141.28;100.00;50133.94;5093315;28;20192;-74
2022/10/07 01:49:15;;;;;;;6.60;2.90;;;;;;;-141.28;100.00;50130.00;5094849;28;20641;-73
2022/10/07 01:51:45;;;;;;;4.87;2.77;;;;;;;-141.28;100.00;50094.69;5094311;28;20227;-75
2022/10/07 01:54:27;;;;;;;7.13;2.60;;;;;;;-141.28;100.00;50126.09;5094950;28;20195;-75
2022/10/07 01:57:11;;;;;;;12.53;3.07;;;;;;;-141.28;100.00;50128.06;5094388;28;20306;-73
2022/10/07 02:00:08;;;;;;;3.67;2.40;;;;;;;-141.28;100.00;50192.81;5095337;28;20669;-73
2022/10/07 02:03:08;;;;;;;7.33;2.90;;;;;;;-141.28;100.00;50251.69;5090179;28;20768;-74
2022/10/07 02:05:45;;;;;;;7.40;2.60;;;;;;;-141.28;100.00;50198.72;5081717;28;20727;-74
2022/10/07 02:08:26;;;;;;;6.20;2.70;;;;;;;-141.28;100.00;50184.97;5094840;28;20269;-74
2022/10/07 02:11:07;;;;;;;4.23;2.40;;;;;;;-141.28;100.00;50173.19;5094270;28;20841;-74
2022/10/07 02:13:40;;;;;;;5.87;2.77;;;;;;;-141.28;100.00;50133.94;5094295;28;20549;-72
2022/10/07 02:16:17;;;;;;;9.10;2.70;;;;;;;-141.28;100.00;50090.75;5094491;28;20196;-73
2022/10/07 02:18:48;;;;;;;4.20;2.40;;;;;;;-141.28;100.00;50047.59;5064077;28;20617;-72
2022/10/07 02:21:18;;;;;;;5.93;2.77;;;;;;;-141.28;100.00;50016.19;5094545;28;20445;-73
2022/10/07 02:23:46;;;;;;;3.33;2.80;;;;;;;-141.28;100.00;50004.41;5094111;28;20445;-73
2022/10/07 02:26:17;;;;;;;5.67;2.20;;;;;;;-141.28;100.00;49947.50;5094003;28;20456;-73
2022/10/07 02:28:51;;;;;;;3.10;2.50;;;;;;;-141.28;100.00;49906.28;5094155;28;20223;-73
2022/10/07 02:31:23;;;;;;;5.70;2.30;;;;;;;-141.28;100.00;49886.66;5093713;28;20430;-74
2022/10/07 02:33:52;;;;;;;9.37;3.13;;;;;;;-141.28;100.00;49886.66;5094135;28;20605;-74
2022/10/07 02:36:25;;;;;;;5.03;2.57;;;;;;;-141.28;100.00;49843.47;5093864;28;20494;-74
2022/10/07 02:38:52;;;;;;;10.50;3.50;;;;;;;-141.28;100.00;49863.09;5093875;28;20449;-72
2022/10/07 02:41:31;;;;;;;4.57;3.23;;;;;;;-141.28;100.00;49831.69;5093867;28;20883;-74
2022/10/07 02:44:10;;;;;;;6.17;3.17;;;;;;;-141.28;100.00;49870.94;5093672;28;20533;-74
2022/10/07 02:46:42;;;;;;;6.43;3.77;;;;;;;-141.28;100.00;49821.88;5093810;28;20441;-74
2022/10/07 02:49:14;;;;;;;7.37;3.70;;;;;;;-141.28;100.00;49776.75;5093524;28;20626;-76
2022/10/07 02:51:47;;;;;;;6.93;3.20;;;;;;;-141.28;100.00;49788.53;5093368;28;20200;-73
2022/10/07 02:54:19;;;;;;;5.87;3.50;;;;;;;-141.28;100.00;49764.97;5080511;28;20650;-73
2022/10/07 02:56:49;;;;;;;8.70;3.33;;;;;;;-141.28;100.00;49713.94;5093906;28;20224;-74
2022/10/07 02:59:19;;;;;;;3.57;2.90;;;;;;;-141.28;100.00;49680.59;5096325;28;20199;-74
2022/10/07 03:01:51;;;;;;;5.77;2.47;;;;;;;-141.28;100.00;49682.56;5093648;28;20446;-73
2022/10/07 03:04:18;;;;;;;4.77;2.50;;;;;;;-141.28;100.00;49643.31;5094383;28;20510;-73
2022/10/07 03:06:46;;;;;;;4.43;3.00;;;;;;;-141.28;100.00;49619.75;5096942;28;20253;-74
2022/10/07 03:09:13;;;;;;;9.57;3.63;;;;;;;-141.28;100.00;49607.97;5097820;28;20546;-73
2022/10/07 03:11:40;;;;;;;8.93;4.40;;;;;;;-141.28;100.00;49596.22;5096588;28;20198;-73
2022/10/07 03:14:09;;;;;;;5.40;3.20;;;;;;;-141.28;100.00;49549.13;5097358;28;20445;-74
2022/10/07 03:16:37;;;;;;;14.97;4.10;;;;;;;-141.28;100.00;49509.88;5098008;28;20567;-73
2022/10/07 03:19:05;;;;;;;11.70;4.53;;;;;;;-141.28;100.00;49502.03;5097603;28;20453;-73
2022/10/07 03:21:34;;;;;;;8.13;4.20;;;;;;;-141.28;100.00;49482.41;5097873;28;20453;-72
2022/10/07 03:24:03;;;;;;;16.70;5.00;;;;;;;-141.28;100.00;49451.00;5097346;28;20453;-74
2022/10/07 03:26:32;;;;;;;19.50;5.23;;;;;;;-141.28;100.00;49460.81;5093441;28;20202;-74
2022/10/07 03:29:00;;;;;;;20.87;6.53;;;;;;;-141.28;100.00;49443.16;5073132;28;20517;-75
2022/10/07 03:31:27;;;;;;;12.90;5.40;;;;;;;-141.28;100.00;49411.75;5093343;28;20429;-72
2022/10/07 03:33:56;;;;;;;13.80;5.13;;;;;;;-141.28;100.00;49409.78;5092984;28;20620;-72
2022/10/07 03:36:24;;;;;;;11.87;5.20;;;;;;;-141.28;100.00;49368.59;5093410;28;20505;-74
2022/10/07 03:38:51;;;;;;;11.67;5.20;;;;;;;-141.28;100.00;49392.13;5092815;28;21000;-73
2022/10/07 03:41:20;;;;;;;11.70;4.90;;;;;;;-141.28;100.00;49360.75;5092969;28;20574;-73
2022/10/07 03:43:47;;;;;;;13.17;4.87;;;;;;;-141.28;100.00;49360.75;5092927;28;20491;-73
2022/10/07 03:46:15;;;;;;;12.10;5.93;;;;;;;-141.28;100.00;49378.41;5074501;28;20444;-73
2022/10/07 03:48:42;;;;;;;14.43;5.97;;;;;;;-141.28;100.00;49343.06;5091923;28;20202;-74
2022/10/07 03:51:16;;;;;;;20.13;7.10;;;;;;;-141.28;100.00;49331.31;5092549;28;20494;-74
2022/10/07 03:53:43;;;;;;;23.53;6.53;;;;;;;-141.28;100.00;49325.41;5092189;28;20224;-74
2022/10/07 03:56:12;;;;;;;21.17;6.33;;;;;;;-141.28;100.00;49329.34;5092321;28;20457;-74
2022/10/07 03:58:40;;;;;;;20.67;5.83;;;;;;;-141.28;100.00;49299.91;5092099;28;20461;-74
2022/10/07 04:01:09;;;;;;;22.77;6.03;;;;;;;-141.28;100.00;49266.56;5092056;28;20441;-74
2022/10/07 04:03:37;;;;;;;20.30;6.37;;;;;;;-141.28;100.00;49243.00;5092302;28;20533;-72
2022/10/07 04:06:06;;;;;;;17.03;4.83;;;;;;;-141.28;100.00;49248.88;5091793;28;21065;-73
2022/10/07 04:08:35;;;;;;;14.27;5.07;;;;;;;-141.28;100.00;49246.94;5091799;28;20441;-72
2022/10/07 04:11:04;;;;;;;22.30;5.50;;;;;;;-141.28;100.00;49231.22;5091017;28;20525;-74
2022/10/07 04:13:31;;;;;;;18.83;5.13;;;;;;;-141.28;100.00;49215.53;5091405;28;20446;-74
2022/10/07 04:15:58;;;;;;;33.67;11.37;;;;;;;-141.28;100.00;49195.91;5093196;28;20533;-73
2022/10/07 04:18:28;;;;;;;29.30;10.53;;;;;;;-141.28;100.00;49168.44;5092810;28;20488;-74
2022/10/07 04:21:00;;;;;;;21.97;8.83;;;;;;;-141.28;100.00;49199.84;5092113;28;20438;-73
2022/10/07 04:23:27;;;;;;;20.77;8.10;;;;;;;-141.28;100.00;49146.84;5085208;28;20495;-72
2022/10/07 04:25:55;;;;;;;28.63;8.70;;;;;;;-141.28;100.00;49156.66;5085185;28;20445;-74
2022/10/07 04:28:26;;;;;;;21.63;7.83;;;;;;;-141.28;100.00;49121.34;5084590;28;20438;-73
2022/10/07 04:30:54;;;;;;;37.67;10.37;;;;;;;-141.28;100.00;49133.13;5086434;28;20560;-75
2022/10/07 04:33:22;;;;;;;26.33;9.20;;;;;;;-141.28;100.00;49105.66;5091629;28;20728;-72
2022/10/07 04:35:50;;;;;;;23.40;8.07;;;;;;;-141.28;100.00;49109.59;5091247;28;21016;-73
2022/10/07 04:38:19;;;;;;;19.17;8.20;;;;;;;-141.28;100.00;49097.81;5091098;28;20506;-74
2022/10/07 04:40:50;;;;;;;27.93;9.03;;;;;;;-141.28;100.00;49086.03;5091532;28;20452;-75
2022/10/07 04:43:22;;;;;;;19.17;8.43;;;;;;;-141.28;100.00;49082.13;5085363;28;20499;-75
2022/10/07 04:45:52;;;;;;;62.43;14.13;;;;;;;-141.28;100.00;49089.97;5091568;28;20214;-73
2022/10/07 04:48:23;;;;;;;26.63;10.03;;;;;;;-141.28;100.00;49093.88;5091069;28;20520;-73
2022/10/07 04:50:51;;;;;;;31.13;10.27;;;;;;;-141.28;100.00;49062.50;5091065;28;20488;-74
2022/10/07 04:53:20;;;;;;;23.33;8.30;;;;;;;-141.28;100.00;49042.88;5091663;28;20548;-74
2022/10/07 04:55:51;;;;;;;28.40;9.37;;;;;;;-141.28;100.00;49042.88;5073170;28;20446;-75
2022/10/07 04:58:21;;;;;;;37.43;8.83;;;;;;;-141.28;100.00;49048.75;5072890;28;20476;-75
2022/10/07 05:00:49;;;;;;;28.67;8.70;;;;;;;-141.28;100.00;49031.09;5091309;28;20448;-74
2022/10/07 05:03:18;;;;;;;22.70;8.30;;;;;;;-141.28;100.00;49005.59;5091038;28;20453;-74
2022/10/07 05:05:48;;;;;;;22.57;8.77;;;;;;;-141.28;100.00;49029.13;5091065;28;20434;-74
2022/10/07 05:08:16;;;;;;;35.53;10.77;;;;;;;-141.28;100.00;49019.31;5090940;28;20439;-74
2022/10/07 05:10:45;;;;;;;28.30;11.03;;;;;;;-141.28;100.00;49015.41;5089418;28;20227;-73
2022/10/07 05:13:15;;;;;;;49.07;12.10;;;;;;;-141.28;100.00;49038.94;5071403;28;20489;-73
2022/10/07 05:15:59;;;;;;;27.47;12.57;;;;;;;-141.28;100.00;49086.03;5090718;28;20478;-74
2022/10/07 05:18:28;;;;;;;32.70;11.10;;;;;;;-141.28;100.00;49066.41;5087700;28;20434;-75
2022/10/07 05:20:55;;;;;;;33.93;11.03;;;;;;;-141.28;100.00;49074.25;5089689;28;20574;-74
2022/10/07 05:23:24;;;;;;;34.70;11.70;;;;;;;-141.28;100.00;49088.00;5090700;28;20555;-74
2022/10/07 05:25:58;;;;;;;28.33;12.03;;;;;;;-141.28;100.00;49117.44;5090629;28;20445;-75
2022/10/07 05:28:26;;;;;;;27.07;10.90;;;;;;;-141.28;100.00;49139.00;5078766;28;20203;-73
2022/10/07 05:31:04;;;;;;;45.27;12.23;;;;;;;-141.28;100.00;49225.34;5090084;28;20495;-74
2022/10/07 05:33:31;;;;;;;30.50;11.33;;;;;;;-141.28;100.00;49429.41;5090853;28;20187;-74
2022/10/07 05:35:58;;;;;;;32.60;10.97;;;;;;;-141.28;100.00;49541.25;5090065;28;20270;-73
2022/10/07 05:38:27;;;;;;;31.17;9.40;;;;;;;-141.28;100.00;49729.66;5091191;28;20201;-74
2022/10/07 05:41:01;;;;;;;22.57;8.90;;;;;;;-141.28;100.00;49921.97;5068932;28;20192;-74
2022/10/07 05:43:29;;;;;;;20.00;8.70;;;;;;;-141.28;100.00;50088.78;5086077;28;20203;-74
2022/10/07 05:46:00;;;;;;;26.47;9.30;;;;;;;-141.28;100.00;50192.81;5090801;28;20646;-74
2022/10/07 05:48:33;;;;;;;35.10;9.90;;;;;;;-141.28;100.00;50412.66;5090594;28;20671;-74
2022/10/07 05:51:01;;;;;;;22.93;9.17;;;;;;;-141.28;100.00;50561.81;5093325;28;20223;-74
2022/10/07 05:53:29;;;;;;;29.60;10.00;;;;;;;-141.28;100.00;50659.97;5095411;28;20286;-73
2022/10/07 05:55:56;;;;;;;22.70;8.47;;;;;;;-141.28;100.00;50726.72;5091488;28;20253;-74
2022/10/07 05:58:23;;;;;;;26.03;8.37;;;;;;;-141.28;100.00;50830.75;5091255;28;20215;-74
2022/10/07 06:00:52;;;;;;;28.63;8.93;;;;;;;-141.28;100.00;50881.78;5090993;28;20666;-74
2022/10/07 06:03:24;;;;;;;21.60;9.80;;;;;;;-141.28;100.00;50907.31;5090749;28;20199;-73
2022/10/07 06:05:54;;;;;;;20.27;9.13;;;;;;;-141.28;100.00;50997.63;5089878;28;20227;-74
2022/10/07 06:08:27;;;;;;;30.13;10.27;;;;;;;-141.28;100.00;51064.38;5077489;28;20704;-73
2022/10/07 06:13:39;;;;;;;26.63;9.17;;;;;;;-141.28;100.00;51115.41;5090735;28;20784;-75
2022/10/07 06:16:09;;;;;;;39.20;9.40;;;;;;;-141.28;100.00;51064.38;5090091;28;20204;-74
2022/10/07 06:18:36;;;;;;;31.33;10.43;;;;;;;-141.28;100.00;50983.88;5076747;28;20268;-74
2022/10/07 06:21:05;;;;;;;26.93;10.53;;;;;;;-141.28;100.00;50868.06;5077165;28;20274;-74
2022/10/07 06:23:32;;;;;;;24.77;10.40;;;;;;;-141.28;100.00;50762.06;5090265;28;20212;-73
2022/10/07 06:26:02;;;;;;;30.17;11.37;;;;;;;-141.28;100.00;50714.94;5091619;28;20196;-73
2022/10/07 06:28:32;;;;;;;30.77;10.00;;;;;;;-141.28;100.00;50703.16;5090362;28;20200;-74
2022/10/07 06:30:59;;;;;;;22.23;9.90;;;;;;;-141.28;100.00;50750.28;5089960;28;20234;-74
2022/10/07 06:33:26;;;;;;;24.73;9.97;;;;;;;-141.28;100.00;50915.16;5093542;28;20200;-74
2022/10/07 06:35:57;;;;;;;20.70;9.87;;;;;;;-141.28;100.00;50832.72;5093739;28;20623;-75
2022/10/07 06:38:26;;;;;;;27.40;9.27;;;;;;;-141.28;100.00;50805.25;5094081;28;20582;-73
2022/10/07 06:40:59;;;;;;;26.13;9.13;;;;;;;-141.28;100.00;50762.06;5093672;28;20195;-75
2022/10/07 06:43:26;;;;;;;19.80;8.23;;;;;;;-141.28;100.00;50746.34;5093505;28;20274;-73
2022/10/07 06:45:57;;;;;;;30.50;8.97;;;;;;;-141.28;100.00;50693.34;5093702;28;20353;-73
2022/10/07 06:48:25;;;;;;;23.93;8.77;;;;;;;-141.28;100.00;50652.13;5092906;28;20564;-75
2022/10/07 06:50:52;;;;;;;33.67;8.50;;;;;;;-141.28;100.00;50669.78;5093354;28;20284;-73
2022/10/07 06:53:20;;;;;;;16.47;8.37;;;;;;;-141.28;100.00;50577.53;5093320;28;20666;-74
2022/10/07 06:55:50;;;;;;;18.77;8.50;;;;;;;-141.28;100.00;50552.00;5093229;28;20290;-72
2022/10/07 06:58:17;;;;;;;23.93;8.90;;;;;;;-141.28;100.00;50495.09;5080619;28;20276;-72
2022/10/07 07:00:50;;;;;;;18.83;8.43;;;;;;;-141.28;100.00;50528.47;5094368;28;20735;-74
2022/10/07 07:03:19;;;;;;;19.60;8.33;;;;;;;-141.28;100.00;50487.25;5094211;28;20192;-77
2022/10/07 07:05:50;;;;;;;27.23;8.63;;;;;;;-141.28;100.00;50479.38;5093804;28;20254;-74
2022/10/07 07:08:20;;;;;;;22.47;8.63;;;;;;;-141.28;100.00;50447.97;5094435;28;20227;-76
2022/10/07 07:10:51;;;;;;;21.50;8.47;;;;;;;-141.28;100.00;50373.38;5092983;28;20274;-74
2022/10/07 07:13:19;;;;;;;15.87;8.87;;;;;;;-141.28;100.00;50216.38;5093307;28;20245;-75
2022/10/07 07:15:55;;;;;;;17.77;8.97;;;;;;;-141.28;100.00;50228.16;5093581;28;20195;-75
2022/10/07 07:18:23;;;;;;;18.47;8.60;;;;;;;-141.28;100.00;50206.56;5092845;28;20191;-74
2022/10/07 07:20:50;;;;;;;22.70;8.70;;;;;;;-141.28;100.00;50204.59;5092617;28;20200;-74
2022/10/07 07:23:20;;;;;;;29.27;8.23;;;;;;;-141.28;100.00;50118.25;5092602;28;20200;-75
2022/10/07 07:25:49;;;;;;;16.87;8.63;;;;;;;-141.28;100.00;50024.03;5092888;28;20715;-74
2022/10/07 07:28:17;;;;;;;19.37;8.30;;;;;;;-141.28;100.00;49937.69;5073875;28;20286;-76
2022/10/07 07:30:47;;;;;;;18.10;8.53;;;;;;;-141.28;100.00;49882.72;5092679;28;20311;-74
2022/10/07 07:33:14;;;;;;;25.20;8.17;;;;;;;-141.28;100.00;49763.00;5092881;28;20283;-74
2022/10/07 07:35:42;;;;;;;20.87;8.07;;;;;;;-141.28;100.00;49676.66;5092743;28;20199;-74
2022/10/07 07:38:09;;;;;;;22.00;9.07;;;;;;;-141.28;100.00;49502.03;5092906;28;20282;-75
2022/10/07 07:40:37;;;;;;;17.60;8.37;;;;;;;-141.28;100.00;49380.34;5092575;28;20578;-75
2022/10/07 07:43:07;;;;;;;17.03;8.53;;;;;;;-141.28;100.00;49433.34;5091692;28;20195;-74
2022/10/07 07:45:35;;;;;;;19.53;8.43;;;;;;;-141.28;100.00;49384.28;5092074;28;20199;-75
2022/10/07 07:48:02;;;;;;;17.77;7.60;;;;;;;-141.28;100.00;49333.25;5092293;28;20286;-73
2022/10/07 07:50:30;;;;;;;15.73;7.37;;;;;;;-141.28;100.00;49313.66;5092183;28;20219;-73
2022/10/07 07:52:58;;;;;;;14.90;6.93;;;;;;;-141.28;100.00;49270.47;5092039;28;20211;-74
2022/10/07 07:55:27;;;;;;;19.80;7.37;;;;;;;-141.28;100.00;49272.44;5092429;28;20618;-73
2022/10/07 07:57:54;;;;;;;13.10;6.53;;;;;;;-141.28;100.00;49270.47;5091906;28;20634;-73
2022/10/07 08:00:25;;;;;;;17.27;6.00;;;;;;;-141.28;100.00;49268.50;5092175;28;20290;-74
2022/10/07 08:02:52;;;;;;;11.73;5.50;;;;;;;-141.28;100.00;49254.78;5091928;28;20200;-73
2022/10/07 08:05:19;;;;;;;15.23;6.83;;;;;;;-141.28;100.00;49260.66;5092196;28;20203;-73
2022/10/07 08:07:51;;;;;;;13.37;7.17;;;;;;;-141.28;100.00;49270.47;5091857;28;20231;-73
2022/10/07 08:10:18;;;;;;;21.63;7.00;;;;;;;-141.28;100.00;49254.78;5090812;28;20215;-74
2022/10/07 08:12:45;;;;;;;12.97;6.50;;;;;;;-141.28;100.00;49231.22;5091841;28;20200;-73
2022/10/07 08:15:13;;;;;;;14.13;7.30;;;;;;;-141.28;100.00;49211.59;5091483;28;20578;-73
2022/10/07 08:17:42;;;;;;;15.17;7.27;;;;;;;-141.28;100.00;49184.13;5092101;28;20200;-74
2022/10/07 08:20:10;;;;;;;12.23;6.67;;;;;;;-141.28;100.00;49109.59;5092153;28;20195;-74
2022/10/07 08:22:37;;;;;;;19.43;6.37;;;;;;;-141.28;100.00;49180.22;5092018;28;20196;-73
2022/10/07 08:25:05;;;;;;;15.27;6.13;;;;;;;-141.28;100.00;49188.06;5078378;28;20229;-73
2022/10/07 08:27:33;;;;;;;17.67;5.70;;;;;;;-141.28;100.00;49156.66;5091425;28;20196;-74
2022/10/07 08:30:01;;;;;;;17.47;6.37;;;;;;;-141.28;100.00;49168.44;5091809;28;20278;-76
2022/10/07 08:32:29;;;;;;;16.33;5.53;;;;;;;-141.28;100.00;49129.19;5092540;28;20626;-73
2022/10/07 08:34:58;;;;;;;17.80;6.07;;;;;;;-141.28;100.00;49192.00;5093408;28;20199;-74
2022/10/07 08:37:25;;;;;;;16.60;6.27;;;;;;;-141.28;100.00;49662.94;5091292;28;20192;-75
2022/10/07 08:39:52;;;;;;;17.03;5.50;;;;;;;-141.28;100.00;49152.75;5091296;28;20694;-74
2022/10/07 08:42:27;;;;;;;15.27;4.40;;;;;;;-141.28;100.00;49192.00;5091329;28;20188;-74
2022/10/07 08:44:54;;;;;;;13.50;3.93;;;;;;;-141.28;100.00;49190.03;5091283;28;20199;-74
2022/10/07 08:47:29;;;;;;;12.67;4.13;;;;;;;-141.28;100.00;49172.38;5091557;28;20195;-74
2022/10/07 08:50:06;;;;;;;10.37;3.90;;;;;;;-141.28;100.00;49080.16;5091241;28;20546;-74
2022/10/07 08:52:44;;;;;;;9.57;4.43;;;;;;;-141.28;100.00;49148.81;5091243;28;20260;-74
2022/10/07 08:55:23;;;;;;;8.93;3.47;;;;;;;-141.28;100.00;49125.28;5090831;28;20194;-74
2022/10/07 08:58:09;;;;;;;6.37;2.73;;;;;;;-141.28;100.00;49176.28;5090830;28;20215;-73
2022/10/07 09:00:43;;;;;;;3.73;2.57;;;;;;;-141.28;100.00;49164.53;5091235;28;20256;-76
2022/10/07 09:03:22;;;;;;;5.80;2.90;;;;;;;-141.28;100.00;49172.38;5090833;28;20707;-74
2022/10/07 09:05:52;;;;;;;8.47;3.20;;;;;;;-141.28;100.00;49164.53;5090924;28;20191;-75
2022/10/07 09:08:26;;;;;;;5.80;3.20;;;;;;;-141.28;100.00;49180.22;5090890;28;20223;-74
2022/10/07 09:10:55;;;;;;;6.80;3.13;;;;;;;-141.28;100.00;49162.56;5089853;28;20700;-73
2022/10/07 09:13:27;;;;;;;8.50;2.60;;;;;;;-141.28;100.00;49144.91;5090347;28;20199;-74
2022/10/07 09:15:59;;;;;;;5.57;2.60;;;;;;;-141.28;100.00;49133.13;5090841;28;20196;-74
2022/10/07 09:18:31;;;;;;;6.83;2.83;;;;;;;-141.28;100.00;49084.06;5090714;28;20202;-73
2022/10/07 09:21:05;;;;;;;7.50;2.70;;;;;;;-141.28;98.86;49082.13;5090775;28;20208;-74
2022/10/07 09:23:34;;;;;;;8.17;3.10;;;;;;;-141.28;100.00;49193.94;5077961;28;20206;-75
2022/10/07 09:26:01;;;;;;;19.67;4.70;;;;;;;-141.28;100.00;49184.13;5090264;28;20257;-74
2022/10/07 09:28:31;;;;;;;7.10;3.10;;;;;;;-141.28;100.00;49217.50;5090732;28;20615;-75
2022/10/07 09:30:59;;;;;;;8.90;2.90;;;;;;;-141.28;100.00;49211.59;5090417;28;20693;-73
2022/10/07 09:33:29;;;;;;;8.53;2.83;;;;;;;-141.28;100.00;49146.84;5090926;28;20268;-74
2022/10/07 09:35:58;;;;;;;3.60;2.67;;;;;;;-141.28;100.00;49168.44;5090479;28;21146;-75
2022/10/07 09:38:36;;;;;;;12.93;3.57;;;;;;;-141.28;98.32;49160.59;5091892;28;20382;-73
2022/10/07 09:41:15;;;;;;;5.13;3.10;;;;;;;-141.28;91.48;49054.66;5095081;28;20199;-74
2022/10/07 09:43:55;;;;;;;4.67;3.07;;;;;;;-141.28;84.46;49062.50;5092168;28;20219;-74
2022/10/07 09:46:45;;;;;;;6.93;2.90;;;;;;;-141.28;80.50;49070.34;5080615;28;20192;-74
2022/10/07 09:49:30;;;;;;;7.57;2.93;;;;;;;-141.28;79.08;49084.06;5088298;28;20200;-75
2022/10/07 09:52:02;;;;;;;5.40;2.87;;;;;;;-141.28;80.34;49060.53;5090049;28;20227;-74
2022/10/07 09:54:34;;;;;;;5.87;2.73;;;;;;;-141.28;79.51;49082.13;5091260;28;20225;-74
2022/10/07 09:57:06;;;;;;;9.27;2.80;;;;;;;-141.28;76.36;49060.53;5090274;28;20695;-73
2022/10/07 09:59:39;;;;;;;4.80;2.37;;;;;;;-141.28;73.87;49050.72;5091145;28;20197;-75
2022/10/07 10:02:20;;;;;;;5.37;2.63;;;;;;;-141.28;75.22;49050.72;5090433;28;20197;-76
2022/10/07 10:04:51;;;;;;;5.13;2.40;;;;;;;-141.28;72.68;49503.97;5090780;28;20202;-74
2022/10/07 10:07:23;;;;;;;3.83;2.50;;;;;;;-141.28;67.48;49007.56;5092209;28;20230;-75
2022/10/07 10:09:54;;;;;;;8.07;2.63;;;;;;;-141.28;68.21;49301.88;5093581;28;20206;-73
2022/10/07 10:12:25;;;;;;;6.40;2.93;;;;;;;-141.28;69.18;49019.31;5094169;28;20225;-76
2022/10/07 10:14:55;;;;;;;4.17;2.40;;;;;;;-141.28;66.96;48985.97;5094246;28;20591;-74
2022/10/07 10:17:39;;;;;;;6.23;2.53;;;;;;;-141.28;66.27;48964.38;5094296;28;20201;-75
2022/10/07 10:20:29;;;;;;;4.30;2.50;;;;;;;-141.28;64.15;48960.47;5080937;28;20610;-74
2022/10/07 10:22:59;;;;;;;8.63;2.40;;;;;;;-141.28;67.44;48997.75;5093798;28;20572;-75
2022/10/07 10:28:43;;;;;;;6.77;2.57;;;;;;;-141.28;62.00;48984.00;5083144;28;20205;-76
2022/10/07 10:31:21;;;;;;;4.83;2.53;;;;;;;-141.28;63.77;48980.09;5093766;28;20315;-74
2022/10/07 10:33:58;;;;;;;7.40;2.60;;;;;;;-141.28;62.67;48933.00;5094175;28;20230;-75
2022/10/07 10:36:27;;;;;;;5.80;2.50;;;;;;;-141.28;61.94;48921.22;5081601;28;20285;-75
2022/10/07 10:39:02;;;;;;;8.57;2.50;;;;;;;-141.28;62.82;49011.47;5094031;28;20207;-74
2022/10/07 10:41:40;;;;;;;3.70;2.50;;;;;;;-141.28;64.65;48964.38;5096108;28;20195;-76
2022/10/07 10:44:33;;;;;;;5.53;2.47;;;;;;;-141.28;63.12;48972.25;5093190;28;20249;-73
2022/10/07 10:47:10;;;;;;;8.67;2.90;;;;;;;-141.28;62.44;48966.34;5083874;28;20723;-74
2022/10/07 10:49:51;;;;;;;5.27;2.70;;;;;;;-141.28;60.55;48984.00;5093458;28;20200;-75
2022/10/07 10:52:34;;;;;;;5.73;2.20;;;;;;;-141.28;62.39;49031.09;5093627;28;20240;-75
2022/10/07 10:55:35;;;;;;;6.83;2.40;;;;;;;-141.28;64.86;49019.31;5093603;28;20662;-76
2022/10/07 10:58:25;;;;;;;3.03;2.30;;;;;;;-141.28;66.87;49062.50;5093799;28;20296;-75
2022/10/07 11:01:01;;;;;;;5.20;2.70;;;;;;;-141.28;67.44;49062.50;5093476;28;20201;-74
2022/10/07 11:04:00;;;;;;;5.80;2.70;;;;;;;-141.28;70.14;49038.94;5093299;28;20199;-74
2022/10/07 11:06:33;;;;;;;5.33;2.10;;;;;;;-141.28;69.13;48999.72;5092732;28;20666;-76
2022/10/07 11:09:01;;;;;;;3.47;2.73;;;;;;;-141.28;64.18;48987.94;5093219;28;20284;-74
2022/10/07 11:11:30;;;;;;;3.53;2.33;;;;;;;-141.28;61.28;48980.09;5092572;28;20270;-75
2022/10/07 11:14:06;;;;;;;7.47;2.30;;;;;;;-141.28;61.73;48950.66;5092628;28;20219;-73
2022/10/07 11:16:39;;;;;;;10.97;2.60;;;;;;;-141.28;60.61;48958.50;5092747;28;20275;-76
2022/10/07 11:19:13;;;;;;;2.40;2.13;;;;;;;-141.28;60.34;48972.25;5091827;28;20226;-73
2022/10/07 11:21:43;;;;;;;3.50;2.23;;;;;;;-141.28;59.60;48933.00;5092874;28;20202;-74
2022/10/07 11:24:16;;;;;;;3.60;2.13;;;;;;;-141.28;56.60;48913.38;5093226;28;20238;-74
2022/10/07 11:26:50;;;;;;;5.10;2.30;;;;;;;-141.28;57.49;48917.31;5092463;28;20203;-75
2022/10/07 11:29:31;;;;;;;3.30;2.07;;;;;;;-141.28;55.37;48946.72;5092527;28;20285;-75